createdAt,value
2019-05-21T00:02:26.330Z,15.34
2019-05-21T00:04:54.765Z,15.32
2019-05-21T00:07:23.306Z,15.39
2019-05-21T00:09:51.871Z,15.35
2019-05-21T00:12:20.304Z,15.43
2019-05-21T00:14:48.841Z,15.23
2019-05-21T00:17:17.342Z,15.24
2019-05-21T00:19:45.774Z,15.32
2019-05-21T00:22:14.248Z,15.15
2019-05-21T00:24:42.860Z,15.15
2019-05-21T00:27:11.272Z,15.28
2019-05-21T00:30:16.184Z,15.11
2019-05-21T00:33:21.292Z,15.24
2019-05-21T00:36:27.711Z,15.03
2019-05-21T00:39:32.438Z,15.07
2019-05-21T00:42:00.548Z,15.18
2019-05-21T00:44:32.006Z,15.06
2019-05-21T00:47:01.349Z,14.94
2019-05-21T00:49:29.875Z,15.20
2019-05-21T00:52:06.962Z,15.07
2019-05-21T00:54:28.605Z,15.05
2019-05-21T00:56:57.128Z,15.02
2019-05-21T00:59:25.568Z,15.06
2019-05-21T01:01:54.254Z,15.04
2019-05-21T01:04:22.732Z,15.06
2019-05-21T01:06:51.193Z,15.35
2019-05-21T01:09:19.772Z,15.05
2019-05-21T01:11:48.374Z,15.23
2019-05-21T01:14:16.868Z,15.10
2019-05-21T01:16:45.405Z,14.99
2019-05-21T01:19:13.936Z,14.93
2019-05-21T01:21:42.378Z,14.98
2019-05-21T01:24:10.886Z,15.24
2019-05-21T01:26:39.427Z,15.21
2019-05-21T01:29:07.925Z,15.10
2019-05-21T01:31:36.418Z,15.03
2019-05-21T01:34:05.117Z,15.22
2019-05-21T01:36:33.548Z,15.07
2019-05-21T01:39:01.986Z,14.98
2019-05-21T01:41:30.438Z,14.96
2019-05-21T01:43:58.859Z,15.01
2019-05-21T01:46:27.278Z,15.09
2019-05-21T01:48:55.920Z,15.02
2019-05-21T01:51:24.342Z,15.15
2019-05-21T01:53:52.766Z,15.07
2019-05-21T01:56:21.351Z,15.07
2019-05-21T01:58:49.772Z,15.02
2019-05-21T02:01:18.201Z,15.05
2019-05-21T02:03:46.724Z,15.19
2019-05-21T02:06:15.215Z,15.09
2019-05-21T02:08:43.636Z,15.10
2019-05-21T02:11:12.077Z,15.00
2019-05-21T02:13:40.514Z,14.97
2019-05-21T02:16:09.081Z,14.87
2019-05-21T02:18:37.780Z,14.95
2019-05-21T02:21:06.343Z,14.96
2019-05-21T02:23:34.834Z,14.94
2019-05-21T02:26:03.376Z,14.91
2019-05-21T02:28:31.875Z,14.85
2019-05-21T02:31:00.312Z,14.80
2019-05-21T02:33:28.967Z,14.83
2019-05-21T02:35:57.371Z,15.03
2019-05-21T02:38:25.792Z,15.03
2019-05-21T02:40:54.311Z,14.87
2019-05-21T02:43:22.814Z,14.89
2019-05-21T02:45:51.367Z,14.83
2019-05-21T02:48:19.825Z,14.92
2019-05-21T02:50:48.269Z,14.86
2019-05-21T02:53:16.758Z,14.77
2019-05-21T02:55:45.409Z,14.76
2019-05-21T02:58:13.836Z,14.91
2019-05-21T03:00:58.758Z,14.87
2019-05-21T03:03:29.032Z,14.79
2019-05-21T03:06:12.277Z,14.91
2019-05-21T03:08:27.779Z,14.80
2019-05-21T03:10:56.244Z,14.83
2019-05-21T03:13:24.681Z,14.89
2019-05-21T03:15:53.209Z,14.77
2019-05-21T03:18:21.804Z,14.74
2019-05-21T03:20:50.291Z,14.72
2019-05-21T03:23:19.029Z,14.70
2019-05-21T03:25:47.561Z,14.89
2019-05-21T03:28:16.032Z,14.81
2019-05-21T03:30:44.550Z,14.75
2019-05-21T03:33:12.962Z,14.84
2019-05-21T03:35:41.458Z,14.89
2019-05-21T03:38:09.999Z,15.27
2019-05-21T03:40:38.401Z,14.92
2019-05-21T03:43:06.823Z,15.13
2019-05-21T03:45:35.381Z,14.92
2019-05-21T03:48:04.037Z,14.97
2019-05-21T03:50:32.526Z,14.89
2019-05-21T03:53:01.059Z,14.75
2019-05-21T03:55:29.555Z,14.72
2019-05-21T03:57:58.045Z,14.56
2019-05-21T04:00:26.565Z,14.48
2019-05-21T04:02:55.135Z,14.36
2019-05-21T04:05:25.280Z,14.31
2019-05-21T04:07:53.801Z,14.45
2019-05-21T04:10:22.487Z,14.13
2019-05-21T04:13:06.624Z,14.20
2019-05-21T04:15:38.144Z,14.09
2019-05-21T04:18:08.291Z,14.04
2019-05-21T04:20:36.848Z,13.99
2019-05-21T04:23:05.356Z,14.00
2019-05-21T04:25:33.886Z,14.03
2019-05-21T04:28:02.364Z,14.08
2019-05-21T04:30:30.822Z,14.17
2019-05-21T04:32:59.249Z,14.01
2019-05-21T04:35:27.714Z,14.02
2019-05-21T04:37:56.145Z,14.00
2019-05-21T04:40:24.578Z,14.01
2019-05-21T04:42:53.032Z,14.05
2019-05-21T04:45:21.525Z,14.04
2019-05-21T04:47:50.098Z,14.00
2019-05-21T04:50:18.659Z,14.04
2019-05-21T04:52:47.096Z,13.94
2019-05-21T04:55:15.526Z,13.98
2019-05-21T04:57:43.978Z,13.93
2019-05-21T05:00:12.661Z,13.99
2019-05-21T05:02:41.111Z,13.91
2019-05-21T05:05:09.712Z,14.04
2019-05-21T05:07:38.144Z,13.94
2019-05-21T05:10:07.303Z,13.94
2019-05-21T05:12:35.784Z,13.83
2019-05-21T05:15:05.952Z,13.84
2019-05-21T05:17:34.466Z,13.92
2019-05-21T05:20:03.513Z,14.29
2019-05-21T05:22:31.940Z,14.05
2019-05-21T05:25:00.461Z,14.02
2019-05-21T05:27:29.058Z,14.00
2019-05-21T05:29:57.490Z,13.90
2019-05-21T05:32:26.084Z,13.83
2019-05-21T05:34:54.540Z,13.99
2019-05-21T05:37:22.986Z,13.89
2019-05-21T05:39:51.588Z,13.87
2019-05-21T05:42:21.568Z,13.91
2019-05-21T05:44:49.982Z,14.02
2019-05-21T05:47:18.620Z,13.88
2019-05-21T05:49:48.900Z,13.94
2019-05-21T05:52:17.413Z,14.22
2019-05-21T05:54:45.846Z,14.04
2019-05-21T05:57:14.465Z,14.25
2019-05-21T05:59:42.884Z,14.30
2019-05-21T06:02:11.378Z,14.20
2019-05-21T06:04:39.837Z,14.00
2019-05-21T06:07:08.264Z,13.96
2019-05-21T06:09:36.769Z,14.10
2019-05-21T06:12:05.400Z,14.20
2019-05-21T06:14:33.834Z,14.44
2019-05-21T06:17:02.656Z,14.32
2019-05-21T06:19:31.412Z,14.21
2019-05-21T06:21:59.865Z,14.44
2019-05-21T06:24:28.287Z,14.11
2019-05-21T06:26:56.768Z,13.97
2019-05-21T06:29:25.262Z,14.12
2019-05-21T06:31:53.738Z,14.02
2019-05-21T06:34:22.351Z,14.10
2019-05-21T06:36:50.853Z,13.92
2019-05-21T06:39:19.294Z,13.99
2019-05-21T06:41:47.745Z,13.89
2019-05-21T06:44:16.197Z,14.02
2019-05-21T06:46:44.692Z,14.26
2019-05-21T06:49:13.152Z,14.18
2019-05-21T06:51:41.580Z,14.09
2019-05-21T06:54:10.020Z,14.12
2019-05-21T06:56:38.464Z,14.28
2019-05-21T06:59:06.972Z,14.19
2019-05-21T07:01:35.397Z,14.41
2019-05-21T07:04:03.885Z,14.56
2019-05-21T07:06:32.404Z,14.21
2019-05-21T07:09:00.903Z,14.12
2019-05-21T07:11:29.425Z,14.28
2019-05-21T07:13:57.871Z,14.37
2019-05-21T07:16:26.276Z,14.14
2019-05-21T07:18:54.934Z,14.04
2019-05-21T07:21:23.364Z,14.30
2019-05-21T07:23:51.856Z,14.46
2019-05-21T07:26:20.551Z,14.57
2019-05-21T07:28:49.068Z,14.38
2019-05-21T07:31:17.762Z,14.18
2019-05-21T07:33:46.308Z,14.02
2019-05-21T07:36:14.874Z,14.20
2019-05-21T07:38:53.144Z,14.38
2019-05-21T07:41:14.349Z,14.04
2019-05-21T07:43:42.766Z,14.02
2019-05-21T07:46:11.193Z,14.01
2019-05-21T07:48:39.685Z,13.91
2019-05-21T07:51:08.169Z,14.22
2019-05-21T07:53:36.596Z,14.14
2019-05-21T07:56:05.120Z,14.32
2019-05-21T07:58:33.557Z,14.48
2019-05-21T08:01:02.079Z,14.34
2019-05-21T08:03:30.544Z,14.23
2019-05-21T08:05:58.986Z,14.16
2019-05-21T08:08:27.485Z,14.32
2019-05-21T08:10:55.963Z,14.14
2019-05-21T08:13:24.368Z,14.04
2019-05-21T08:15:52.868Z,14.04
2019-05-21T08:18:21.432Z,14.28
2019-05-21T08:20:50.008Z,14.38
2019-05-21T08:23:18.438Z,14.41
2019-05-21T08:25:46.912Z,14.39
2019-05-21T08:28:15.414Z,14.22
2019-05-21T08:30:43.839Z,14.47
2019-05-21T08:33:12.300Z,14.43
2019-05-21T08:35:40.794Z,14.62
2019-05-21T08:38:09.228Z,14.44
2019-05-21T08:40:37.755Z,14.54
2019-05-21T08:43:06.258Z,14.50
2019-05-21T08:45:34.698Z,14.43
2019-05-21T08:48:03.332Z,14.40
2019-05-21T08:50:31.758Z,14.23
2019-05-21T08:53:00.257Z,14.51
2019-05-21T08:55:28.740Z,14.39
2019-05-21T09:00:27.892Z,14.45
2019-05-21T09:02:56.461Z,14.42
2019-05-21T09:03:13.793Z,14.73
2019-05-21T09:05:24.964Z,14.26
2019-05-21T09:07:54.260Z,14.24
2019-05-21T09:10:22.699Z,14.30
2019-05-21T09:12:51.149Z,14.33
2019-05-21T09:15:20.016Z,14.43
2019-05-21T09:17:48.577Z,14.40
2019-05-21T09:20:17.442Z,14.41
2019-05-21T09:22:46.036Z,14.89
2019-05-21T09:25:14.828Z,14.77
2019-05-21T09:27:43.395Z,14.66
2019-05-21T09:30:13.765Z,14.63
2019-05-21T09:32:42.299Z,14.49
2019-05-21T09:35:11.894Z,14.46
2019-05-21T09:37:40.430Z,14.45
2019-05-21T09:40:11.190Z,14.45
2019-05-21T09:42:39.653Z,14.46
2019-05-21T09:45:10.244Z,14.43
2019-05-21T09:47:38.907Z,14.50
2019-05-21T09:50:08.440Z,14.28
2019-05-21T09:52:36.903Z,14.50
2019-05-21T09:55:06.400Z,14.50
2019-05-21T09:57:38.087Z,14.52
2019-05-21T10:00:16.375Z,14.58
2019-05-21T10:02:44.805Z,14.32
2019-05-21T10:05:13.546Z,14.59
2019-05-21T10:07:42.004Z,14.70
2019-05-21T10:10:10.536Z,14.51
2019-05-21T10:12:38.962Z,14.30
2019-05-21T10:15:08.384Z,14.47
2019-05-21T10:17:36.808Z,14.31
2019-05-21T10:20:06.970Z,14.70
2019-05-21T10:22:35.553Z,14.43
2019-05-21T10:25:05.114Z,14.46
2019-05-21T10:27:33.776Z,14.24
2019-05-21T10:30:02.501Z,14.56
2019-05-21T10:32:31.059Z,14.26
2019-05-21T10:34:59.502Z,14.45
2019-05-21T10:37:28.235Z,14.53
2019-05-21T10:39:56.670Z,14.55
2019-05-21T10:42:25.187Z,14.40
2019-05-21T10:44:53.743Z,14.31
2019-05-21T10:47:22.160Z,14.43
2019-05-21T10:49:50.958Z,14.19
2019-05-21T10:52:19.575Z,14.41
2019-05-21T10:54:48.067Z,14.23
2019-05-21T10:57:16.497Z,14.41
2019-05-21T10:59:45.001Z,14.18
2019-05-21T11:02:20.740Z,14.35
2019-05-21T11:04:50.896Z,14.49
2019-05-21T11:07:19.779Z,14.41
2019-05-21T11:09:48.270Z,14.20
2019-05-21T11:12:17.065Z,14.17
2019-05-21T11:14:45.573Z,14.02
2019-05-21T11:17:14.155Z,14.08
2019-05-21T11:19:42.689Z,14.11
2019-05-21T11:22:11.184Z,14.00
2019-05-21T11:24:39.667Z,14.10
2019-05-21T11:27:09.045Z,14.34
2019-05-21T11:29:37.566Z,14.05
2019-05-21T11:32:06.427Z,14.35
2019-05-21T11:34:35.063Z,14.03
2019-05-21T11:37:03.532Z,14.14
2019-05-21T11:39:32.018Z,14.28
2019-05-21T11:42:00.733Z,14.31
2019-05-21T11:44:29.223Z,14.19
2019-05-21T11:46:57.647Z,14.02
2019-05-21T11:49:26.121Z,14.08
2019-05-21T11:51:54.640Z,14.06
2019-05-21T11:54:23.072Z,14.19
2019-05-21T11:56:51.518Z,14.05
2019-05-21T11:59:20.019Z,14.36
2019-05-21T12:01:48.803Z,14.45
2019-05-21T12:04:17.355Z,14.52
2019-05-21T12:06:45.861Z,14.27
2019-05-21T12:09:14.309Z,14.15
2019-05-21T12:11:42.773Z,14.05
2019-05-21T12:14:11.331Z,14.09
2019-05-21T12:16:39.794Z,14.01
2019-05-21T12:19:08.772Z,13.93
2019-05-21T12:21:37.257Z,14.00
2019-05-21T12:24:05.861Z,13.97
2019-05-21T12:26:34.554Z,14.09
2019-05-21T12:29:03.045Z,14.02
2019-05-21T12:31:31.465Z,14.34
2019-05-21T12:33:59.942Z,14.36
2019-05-21T12:36:28.370Z,14.45
2019-05-21T12:39:11.632Z,14.48
2019-05-21T12:41:27.111Z,14.15
2019-05-21T12:43:55.611Z,14.16
2019-05-21T12:46:24.204Z,14.08
2019-05-21T12:48:52.806Z,14.28
2019-05-21T12:51:21.262Z,14.10
2019-05-21T12:53:49.693Z,14.06
2019-05-21T12:56:18.157Z,14.00
2019-05-21T12:58:46.663Z,14.07
2019-05-21T13:01:15.164Z,13.87
2019-05-21T13:03:43.788Z,14.30
2019-05-21T13:06:12.587Z,14.22
2019-05-21T13:08:41.068Z,14.28
2019-05-21T13:11:09.646Z,14.11
2019-05-21T13:13:38.084Z,14.22
2019-05-21T13:16:06.564Z,14.27
2019-05-21T13:18:35.030Z,14.40
2019-05-21T13:21:03.501Z,14.47
2019-05-21T13:23:31.919Z,14.49
2019-05-21T13:26:00.501Z,14.65
2019-05-21T13:28:29.065Z,14.71
2019-05-21T13:30:57.645Z,14.57
2019-05-21T13:33:26.105Z,14.72
2019-05-21T13:35:54.523Z,14.69
2019-05-21T13:38:23.015Z,14.49
2019-05-21T13:40:53.365Z,14.67
2019-05-21T13:43:21.855Z,14.77
2019-05-21T13:45:50.366Z,14.71
2019-05-21T13:48:18.859Z,14.50
2019-05-21T13:50:47.272Z,14.66
2019-05-21T13:53:15.836Z,14.52
2019-05-21T13:55:44.776Z,14.47
2019-05-21T13:58:13.237Z,14.21
2019-05-21T14:00:43.304Z,14.15
2019-05-21T14:03:12.870Z,14.09
2019-05-21T14:05:41.669Z,14.24
2019-05-21T14:08:10.269Z,14.29
2019-05-21T14:10:39.151Z,14.04
2019-05-21T14:13:07.799Z,13.98
2019-05-21T14:15:36.251Z,14.00
2019-05-21T14:18:04.861Z,14.10
2019-05-21T14:20:33.348Z,13.94
2019-05-21T14:23:01.841Z,13.89
2019-05-21T14:25:30.645Z,14.01
2019-05-21T14:27:59.081Z,13.94
2019-05-21T14:30:27.576Z,14.01
2019-05-21T14:32:56.098Z,13.87
2019-05-21T14:35:24.545Z,13.84
2019-05-21T14:37:52.979Z,14.04
2019-05-21T14:40:31.642Z,14.13
2019-05-21T14:43:00.125Z,13.90
2019-05-21T14:45:23.197Z,14.28
2019-05-21T14:47:51.803Z,14.19
2019-05-21T14:50:20.291Z,14.26
2019-05-21T14:52:52.088Z,14.25
2019-05-21T14:55:19.469Z,14.47
2019-05-21T14:57:47.890Z,14.41
2019-05-21T15:00:21.984Z,14.49
2019-05-21T15:02:50.552Z,14.23
2019-05-21T15:05:19.119Z,14.11
2019-05-21T15:07:49.751Z,14.27
2019-05-21T15:10:17.927Z,14.29
2019-05-21T15:12:46.351Z,14.15
2019-05-21T15:15:15.390Z,14.09
2019-05-21T15:17:44.073Z,14.19
2019-05-21T15:20:23.831Z,14.08
2019-05-21T15:22:52.371Z,14.04
2019-05-21T15:25:20.878Z,14.19
2019-05-21T15:27:49.300Z,14.14
2019-05-21T15:30:18.268Z,14.04
2019-05-21T15:32:46.692Z,14.13
2019-05-21T15:35:15.458Z,14.01
2019-05-21T15:37:45.103Z,13.99
2019-05-21T15:40:14.149Z,14.12
2019-05-21T15:42:42.644Z,14.01
2019-05-21T15:45:11.534Z,13.96
2019-05-21T15:47:40.130Z,13.89
2019-05-21T15:50:09.196Z,14.07
2019-05-21T15:52:37.726Z,13.85
2019-05-21T15:55:07.725Z,13.82
2019-05-21T15:57:36.273Z,13.77
2019-05-21T16:00:10.180Z,13.95
2019-05-21T16:02:38.760Z,13.86
2019-05-21T16:05:07.930Z,13.76
2019-05-21T16:07:36.974Z,13.74
2019-05-21T16:10:07.329Z,13.67
2019-05-21T16:12:35.868Z,13.80
2019-05-21T16:15:06.741Z,13.72
2019-05-21T16:17:35.182Z,13.73
2019-05-21T16:20:05.393Z,13.74
2019-05-21T16:22:33.874Z,13.94
2019-05-21T16:25:02.310Z,13.89
2019-05-21T16:27:30.741Z,14.00
2019-05-21T16:29:59.228Z,13.96
2019-05-21T16:32:27.724Z,13.93
2019-05-21T16:34:56.280Z,14.48
2019-05-21T16:37:24.921Z,14.31
2019-05-21T16:39:54.006Z,13.98
2019-05-21T16:42:22.609Z,13.89
2019-05-21T16:44:51.102Z,13.80
2019-05-21T16:47:19.614Z,13.94
2019-05-21T16:49:48.234Z,14.08
2019-05-21T16:52:16.694Z,13.87
2019-05-21T16:54:45.135Z,13.83
2019-05-21T16:57:13.621Z,13.81
2019-05-21T16:59:42.141Z,13.75
2019-05-21T17:02:10.770Z,14.01
2019-05-21T17:04:39.160Z,13.84
2019-05-21T17:07:07.694Z,13.85
2019-05-21T17:09:36.131Z,13.81
2019-05-21T17:12:05.099Z,13.74
2019-05-21T17:14:33.591Z,13.77
2019-05-21T17:17:02.171Z,13.72
2019-05-21T17:19:30.751Z,13.73
2019-05-21T17:21:59.283Z,13.75
2019-05-21T17:24:27.802Z,13.74
2019-05-21T17:26:56.300Z,13.80
2019-05-21T17:29:24.796Z,13.76
2019-05-21T17:31:53.280Z,13.78
2019-05-21T17:34:21.793Z,13.79
2019-05-21T17:36:50.399Z,13.63
2019-05-21T17:39:18.907Z,13.75
2019-05-21T17:41:47.419Z,13.67
2019-05-21T17:44:15.989Z,13.69
2019-05-21T17:46:44.442Z,13.69
2019-05-21T17:49:13.015Z,13.68
2019-05-21T17:51:41.677Z,13.84
2019-05-21T17:54:10.188Z,13.70
2019-05-21T17:56:38.714Z,13.85
2019-05-21T17:59:07.273Z,13.80
2019-05-21T18:01:35.939Z,13.76
2019-05-21T18:04:04.906Z,13.77
2019-05-21T18:06:33.844Z,14.09
2019-05-21T18:09:03.957Z,13.84
2019-05-21T18:11:32.464Z,13.88
2019-05-21T18:14:01.079Z,13.83
2019-05-21T18:16:29.515Z,14.19
2019-05-21T18:18:58.419Z,14.10
2019-05-21T18:21:27.632Z,14.31
2019-05-21T18:23:56.455Z,14.44
2019-05-21T18:26:25.053Z,14.04
2019-05-21T18:28:53.594Z,13.89
2019-05-21T18:31:22.111Z,13.90
2019-05-21T18:33:50.552Z,13.90
2019-05-21T18:36:19.236Z,13.80
2019-05-21T18:38:47.916Z,14.01
2019-05-21T18:41:18.162Z,13.95
2019-05-21T18:43:49.920Z,13.87
2019-05-21T18:46:16.945Z,14.27
2019-05-21T18:48:45.382Z,14.25
2019-05-21T18:51:13.920Z,14.33
2019-05-21T18:53:42.356Z,14.26
2019-05-21T18:56:11.866Z,13.98
2019-05-21T18:58:40.754Z,13.82
2019-05-21T19:01:09.246Z,13.93
2019-05-21T19:03:37.821Z,14.09
2019-05-21T19:06:06.369Z,13.85
2019-05-21T19:08:34.890Z,13.83
2019-05-21T19:11:03.729Z,13.86
2019-05-21T19:13:32.273Z,13.83
2019-05-21T19:16:00.785Z,13.82
2019-05-21T19:18:29.303Z,13.84
2019-05-21T19:20:57.922Z,13.93
2019-05-21T19:23:26.365Z,14.16
2019-05-21T19:25:54.938Z,14.38
2019-05-21T19:28:23.451Z,14.10
2019-05-21T19:30:52.035Z,14.18
2019-05-21T19:33:20.571Z,14.10
2019-05-21T19:35:49.214Z,14.18
2019-05-21T19:38:19.664Z,14.14
2019-05-21T19:40:48.098Z,14.46
2019-05-21T19:43:16.741Z,14.63
2019-05-21T19:45:45.249Z,14.19
2019-05-21T19:48:13.760Z,14.46
2019-05-21T19:50:42.298Z,14.19
2019-05-21T19:53:10.771Z,14.12
2019-05-21T19:55:39.672Z,14.12
2019-05-21T19:58:08.673Z,14.06
2019-05-21T20:00:38.923Z,13.98
2019-05-21T20:03:07.611Z,13.91
2019-05-21T20:05:36.621Z,14.04
2019-05-21T20:08:05.135Z,14.07
2019-05-21T20:10:34.275Z,14.01
2019-05-21T20:13:02.985Z,13.93
2019-05-21T20:15:31.501Z,14.02
2019-05-21T20:18:07.393Z,13.99
2019-05-21T20:20:30.705Z,14.06
2019-05-21T20:23:00.086Z,14.01
2019-05-21T20:25:30.589Z,13.97
2019-05-21T20:27:59.695Z,13.92
2019-05-21T20:30:28.865Z,13.97
2019-05-21T20:32:57.560Z,13.94
2019-05-21T20:35:27.978Z,13.93
2019-05-21T20:37:56.763Z,14.20
2019-05-21T20:40:25.607Z,14.36
2019-05-21T20:42:55.161Z,14.28
2019-05-21T20:45:23.931Z,14.18
2019-05-21T20:47:52.937Z,14.05
2019-05-21T20:50:22.660Z,14.06
2019-05-21T20:52:51.747Z,13.95
2019-05-21T20:55:20.250Z,14.14
2019-05-21T20:57:49.344Z,14.07
2019-05-21T21:00:23.074Z,13.98
2019-05-21T21:02:52.513Z,13.95
2019-05-21T21:05:21.191Z,13.91
2019-05-21T21:07:50.435Z,13.95
2019-05-21T21:10:19.345Z,13.87
2019-05-21T21:12:48.711Z,13.84
2019-05-21T21:15:17.802Z,13.83
2019-05-21T21:17:46.792Z,13.90
2019-05-21T21:20:15.694Z,13.91
2019-05-21T21:22:44.136Z,13.85
2019-05-21T21:25:14.266Z,13.88
2019-05-21T21:27:43.080Z,14.18
2019-05-21T21:30:12.186Z,14.27
2019-05-21T21:32:41.160Z,14.54
2019-05-21T21:35:10.828Z,14.04
2019-05-21T21:37:39.270Z,14.09
2019-05-21T21:40:10.194Z,13.96
2019-05-21T21:42:39.536Z,13.85
2019-05-21T21:45:08.821Z,13.74
2019-05-21T21:47:37.899Z,13.67
2019-05-21T21:50:07.359Z,13.79
2019-05-21T21:52:36.455Z,13.74
2019-05-21T21:55:09.109Z,13.64
2019-05-21T21:57:37.961Z,13.74
2019-05-21T22:00:26.308Z,13.72
2019-05-21T22:02:55.508Z,14.03
2019-05-21T22:05:25.011Z,14.02
2019-05-21T22:07:54.310Z,13.87
2019-05-21T22:10:23.513Z,13.86
2019-05-21T22:12:52.295Z,13.86
2019-05-21T22:15:21.082Z,13.87
2019-05-21T22:17:49.622Z,14.16
2019-05-21T22:20:19.073Z,13.81
2019-05-21T22:22:48.065Z,14.01
2019-05-21T22:25:16.962Z,13.88
2019-05-21T22:27:45.466Z,13.76
2019-05-21T22:30:14.744Z,14.11
2019-05-21T22:32:43.280Z,14.05
2019-05-21T22:35:12.212Z,13.83
2019-05-21T22:37:40.791Z,13.76
2019-05-21T22:40:09.689Z,13.75
2019-05-21T22:42:38.152Z,13.72
2019-05-21T22:45:09.327Z,13.70
2019-05-21T22:47:38.005Z,13.68
2019-05-21T22:50:07.561Z,13.59
2019-05-21T22:52:36.393Z,13.51
2019-05-21T22:55:06.694Z,13.49
2019-05-21T22:57:35.476Z,13.61
2019-05-21T23:00:05.473Z,13.60
2019-05-21T23:02:36.255Z,13.50
2019-05-21T23:05:06.597Z,13.50
2019-05-21T23:07:35.099Z,13.39
2019-05-21T23:10:06.616Z,13.69
2019-05-21T23:12:35.972Z,13.51
2019-05-21T23:15:23.893Z,13.94
2019-05-21T23:17:40.383Z,13.53
2019-05-21T23:20:11.701Z,13.99
2019-05-21T23:22:42.989Z,13.76
2019-05-21T23:25:13.315Z,13.63
2019-05-21T23:27:41.780Z,13.59
2019-05-21T23:30:12.497Z,13.63
2019-05-21T23:32:41.276Z,13.56
2019-05-21T23:35:14.159Z,13.49
2019-05-21T23:37:45.100Z,13.64
2019-05-21T23:40:15.850Z,13.44
2019-05-21T23:42:44.626Z,13.30
2019-05-21T23:45:15.025Z,13.28
2019-05-21T23:47:43.975Z,13.38
2019-05-21T23:50:15.188Z,13.36
2019-05-21T23:52:44.540Z,13.32
2019-05-21T23:55:13.417Z,13.38
2019-05-21T23:57:42.561Z,13.25
